createdAt,value
2022-08-18T00:01:23.658Z,18.30
2022-08-18T00:03:59.196Z,18.30
2022-08-18T00:06:35.532Z,18.20
2022-08-18T00:09:12.493Z,18.20
2022-08-18T00:11:46.466Z,18.30
2022-08-18T00:14:22.828Z,18.30
2022-08-18T00:16:55.226Z,18.30
2022-08-18T00:19:47.129Z,18.30
2022-08-18T00:22:17.311Z,18.30
2022-08-18T00:24:50.100Z,18.30
2022-08-18T00:27:28.315Z,18.20
2022-08-18T00:30:01.481Z,18.20
2022-08-18T00:32:34.602Z,18.20
2022-08-18T00:35:09.375Z,18.30
2022-08-18T00:37:43.126Z,18.30
2022-08-18T00:40:18.207Z,18.30
2022-08-18T00:42:55.506Z,18.40
2022-08-18T00:45:29.230Z,18.40
2022-08-18T00:47:58.873Z,18.40
2022-08-18T00:50:34.378Z,18.40
2022-08-18T00:53:10.873Z,18.40
2022-08-18T00:55:43.807Z,18.40
2022-08-18T00:58:30.313Z,18.40
2022-08-18T01:01:03.250Z,18.40
2022-08-18T01:03:34.873Z,18.30
2022-08-18T01:06:07.640Z,18.20
2022-08-18T01:08:38.996Z,18.20
2022-08-18T01:11:14.382Z,18.00
2022-08-18T01:13:44.966Z,18.00
2022-08-18T01:16:31.816Z,18.00
2022-08-18T01:19:17.874Z,17.90
2022-08-18T01:21:56.290Z,17.80
2022-08-18T01:24:44.620Z,17.90
2022-08-18T01:27:21.960Z,17.90
2022-08-18T01:29:53.138Z,18.00
2022-08-18T01:32:26.863Z,17.90
2022-08-18T01:34:56.385Z,17.90
2022-08-18T01:37:26.779Z,17.90
2022-08-18T01:41:23.961Z,18.00
2022-08-18T01:42:47.670Z,18.10
2022-08-18T01:45:20.653Z,18.30
2022-08-18T01:47:57.673Z,18.40
2022-08-18T01:50:32.282Z,18.50
2022-08-18T01:53:01.926Z,18.60
2022-08-18T01:55:34.809Z,18.70
2022-08-18T01:58:05.168Z,18.70
2022-08-18T02:00:36.620Z,18.70
2022-08-18T02:03:09.616Z,18.80
2022-08-18T02:05:44.539Z,18.80
2022-08-18T02:08:17.423Z,18.80
2022-08-18T02:10:48.631Z,18.70
2022-08-18T02:13:18.634Z,18.70
2022-08-18T02:15:50.196Z,18.70
2022-08-18T02:18:30.435Z,18.70
2022-08-18T02:21:14.356Z,18.70
2022-08-18T02:23:53.744Z,18.70
2022-08-18T02:26:25.152Z,18.70
2022-08-18T02:28:56.855Z,18.70
2022-08-18T02:31:30.166Z,18.70
2022-08-18T02:33:59.692Z,18.60
2022-08-18T02:36:29.336Z,18.60
2022-08-18T02:38:59.724Z,18.60
2022-08-18T02:41:31.740Z,18.60
2022-08-18T02:44:03.063Z,18.60
2022-08-18T02:46:34.455Z,18.60
2022-08-18T02:49:04.637Z,18.70
2022-08-18T02:51:34.519Z,18.70
2022-08-18T02:54:09.670Z,18.70
2022-08-18T02:56:43.191Z,18.80
2022-08-18T02:59:17.234Z,18.90
2022-08-18T03:01:49.581Z,18.90
2022-08-18T03:04:28.563Z,18.80
2022-08-18T03:07:01.411Z,18.90
2022-08-18T03:09:31.528Z,18.90
2022-08-18T03:12:03.211Z,18.90
2022-08-18T03:14:32.734Z,18.90
2022-08-18T03:17:02.492Z,18.90
2022-08-18T03:19:32.573Z,18.90
2022-08-18T03:22:08.317Z,19.00
2022-08-18T03:24:55.804Z,19.00
2022-08-18T03:27:27.940Z,19.00
2022-08-18T03:29:58.861Z,19.00
2022-08-18T03:32:31.191Z,19.00
2022-08-18T03:35:01.194Z,19.10
2022-08-18T03:37:30.598Z,19.10
2022-08-18T03:40:02.975Z,19.10
2022-08-18T03:42:33.840Z,19.10
2022-08-18T03:45:13.217Z,19.10
2022-08-18T03:47:47.745Z,19.00
2022-08-18T03:50:17.278Z,19.10
2022-08-18T03:52:49.094Z,19.10
2022-08-18T03:55:21.976Z,19.20
2022-08-18T03:57:53.476Z,19.20
2022-08-18T04:00:27.863Z,19.10
2022-08-18T04:02:57.144Z,19.10
2022-08-18T04:05:26.310Z,19.10
2022-08-18T04:07:57.514Z,19.10
2022-08-18T04:10:30.870Z,19.10
2022-08-18T04:13:01.596Z,19.10
2022-08-18T04:15:34.111Z,19.10
2022-08-18T04:18:05.121Z,19.00
2022-08-18T04:20:34.601Z,19.00
2022-08-18T04:23:04.275Z,19.00
2022-08-18T04:25:37.261Z,19.10
2022-08-18T04:28:10.386Z,19.20
2022-08-18T04:30:40.023Z,19.10
2022-08-18T04:33:12.296Z,19.10
2022-08-18T04:35:52.427Z,19.00
2022-08-18T04:38:25.279Z,19.00
2022-08-18T04:40:55.150Z,19.10
2022-08-18T04:43:37.160Z,19.10
2022-08-18T04:46:13.389Z,19.10
2022-08-18T04:48:46.041Z,19.10
2022-08-18T04:52:36.732Z,19.10
2022-08-18T04:54:20.601Z,19.10
2022-08-18T04:56:53.489Z,19.10
2022-08-18T04:59:25.647Z,19.10
2022-08-18T05:01:56.853Z,19.10
2022-08-18T05:04:29.852Z,19.10
2022-08-18T05:06:59.255Z,19.10
2022-08-18T05:09:41.437Z,19.20
2022-08-18T05:12:16.713Z,19.20
2022-08-18T05:14:49.118Z,19.20
2022-08-18T05:17:30.610Z,19.20
2022-08-18T05:20:06.137Z,19.20
2022-08-18T05:22:42.712Z,19.20
2022-08-18T05:25:13.795Z,19.20
2022-08-18T05:27:45.473Z,19.30
2022-08-18T05:30:19.202Z,19.30
2022-08-18T05:32:51.493Z,19.30
2022-08-18T05:35:33.246Z,19.30
2022-08-18T05:38:29.054Z,19.30
2022-08-18T05:41:13.907Z,19.30
2022-08-18T05:43:51.335Z,19.20
2022-08-18T05:46:37.750Z,19.30
2022-08-18T05:49:07.827Z,19.30
2022-08-18T05:51:50.070Z,19.30
2022-08-18T05:54:38.203Z,19.30
2022-08-18T05:57:16.482Z,19.30
2022-08-18T05:59:47.997Z,19.30
2022-08-18T06:02:35.098Z,19.30
2022-08-18T06:05:12.090Z,19.30
2022-08-18T06:07:45.319Z,19.30
2022-08-18T06:10:15.413Z,19.40
2022-08-18T06:12:47.407Z,19.50
2022-08-18T06:15:31.848Z,19.50
2022-08-18T06:18:46.862Z,19.60
2022-08-18T06:21:38.733Z,19.60
2022-08-18T06:24:25.175Z,19.60
2022-08-18T06:27:03.667Z,19.60
2022-08-18T06:29:49.533Z,19.50
2022-08-18T06:32:33.674Z,19.50
2022-08-18T06:35:18.436Z,19.40
2022-08-18T06:38:37.275Z,19.40
2022-08-18T06:41:40.842Z,19.50
2022-08-18T06:44:14.161Z,19.40
2022-08-18T06:46:49.716Z,19.50
2022-08-18T06:49:37.704Z,19.60
2022-08-18T06:52:55.329Z,19.60
2022-08-18T06:55:35.022Z,19.70
2022-08-18T06:58:06.816Z,19.70
2022-08-18T07:00:38.336Z,19.60
2022-08-18T07:03:18.260Z,19.60
2022-08-18T07:06:04.784Z,19.60
2022-08-18T07:08:41.318Z,19.70
2022-08-18T07:11:22.667Z,19.80
2022-08-18T07:14:09.372Z,19.80
2022-08-18T07:17:00.023Z,19.80
2022-08-18T07:19:35.282Z,19.90
2022-08-18T07:22:09.480Z,19.90
2022-08-18T07:24:45.728Z,19.90
2022-08-18T07:27:18.010Z,20.00
2022-08-18T07:30:06.207Z,20.10
2022-08-18T07:32:42.969Z,20.20
2022-08-18T07:35:18.018Z,20.20
2022-08-18T07:37:55.464Z,20.20
2022-08-18T07:40:35.219Z,20.10
2022-08-18T07:43:11.185Z,20.10
2022-08-18T07:45:46.179Z,20.10
2022-08-18T07:48:38.574Z,20.10
2022-08-18T07:51:20.671Z,20.20
2022-08-18T07:54:03.160Z,20.30
2022-08-18T07:56:43.839Z,20.30
2022-08-18T07:59:19.117Z,20.30
2022-08-18T08:01:54.250Z,20.40
2022-08-18T08:04:35.695Z,20.40
2022-08-18T08:07:28.726Z,20.50
2022-08-18T08:10:19.257Z,20.60
2022-08-18T08:13:08.734Z,20.60
2022-08-18T08:15:49.733Z,20.70
2022-08-18T08:18:35.711Z,20.70
2022-08-18T08:21:11.221Z,20.80
2022-08-18T08:23:50.976Z,20.90
2022-08-18T08:26:30.667Z,20.90
2022-08-18T08:29:20.353Z,21.00
2022-08-18T08:32:01.754Z,21.10
2022-08-18T08:34:43.524Z,21.20
2022-08-18T08:37:29.598Z,21.30
2022-08-18T08:40:03.342Z,21.40
2022-08-18T08:42:42.086Z,21.50
2022-08-18T08:45:19.649Z,21.60
2022-08-18T08:48:06.608Z,21.60
2022-08-18T08:50:43.295Z,21.60
2022-08-18T08:53:22.544Z,21.70
2022-08-18T08:55:58.791Z,21.70
2022-08-18T08:58:37.545Z,21.80
2022-08-18T09:01:15.983Z,21.90
2022-08-18T09:03:51.471Z,21.80
2022-08-18T09:06:36.949Z,21.90
2022-08-18T09:09:24.359Z,21.90
2022-08-18T09:12:20.060Z,21.90
2022-08-18T09:15:22.687Z,21.90
2022-08-18T09:18:06.003Z,21.90
2022-08-18T09:20:53.286Z,21.90
2022-08-18T09:23:28.024Z,22.10
2022-08-18T09:26:22.701Z,22.00
2022-08-18T09:28:58.937Z,22.00
2022-08-18T09:31:31.798Z,22.00
2022-08-18T09:34:24.327Z,22.00
2022-08-18T09:37:10.703Z,22.00
2022-08-18T09:43:02.203Z,21.90
2022-08-18T09:45:58.592Z,21.80
2022-08-18T09:48:35.918Z,21.80
2022-08-18T09:51:36.279Z,22.00
2022-08-18T09:54:21.705Z,22.10
2022-08-18T09:57:19.518Z,22.30
2022-08-18T10:00:24.373Z,22.30
2022-08-18T10:03:14.460Z,22.50
2022-08-18T10:06:12.591Z,22.60
2022-08-18T10:09:36.340Z,22.70
2022-08-18T10:12:23.710Z,22.90
2022-08-18T10:15:33.173Z,23.00
2022-08-18T10:18:37.618Z,22.90
2022-08-18T10:21:41.961Z,22.80
2022-08-18T10:24:35.103Z,22.80
2022-08-18T10:27:13.108Z,22.90
2022-08-18T10:30:01.651Z,22.80
2022-08-18T10:32:56.483Z,22.80
2022-08-18T10:36:03.101Z,22.80
2022-08-18T10:38:49.357Z,23.00
2022-08-18T10:41:41.477Z,23.10
2022-08-18T10:44:29.252Z,23.30
2022-08-18T10:47:01.911Z,23.40
2022-08-18T10:49:33.471Z,23.60
2022-08-18T10:52:36.422Z,23.60
2022-08-18T10:55:47.957Z,23.70
2022-08-18T10:58:42.593Z,23.70
2022-08-18T11:01:23.033Z,23.60
2022-08-18T11:04:32.814Z,23.50
2022-08-18T11:07:07.811Z,23.50
2022-08-18T11:09:42.133Z,23.40
2022-08-18T11:12:17.891Z,23.50
2022-08-18T11:15:23.597Z,23.50
2022-08-18T11:18:10.927Z,23.60
2022-08-18T11:20:47.491Z,23.50
2022-08-18T11:23:19.110Z,23.40
2022-08-18T11:25:54.057Z,23.40
2022-08-18T11:28:30.204Z,23.20
2022-08-18T11:31:06.453Z,23.10
2022-08-18T11:33:37.639Z,23.20
2022-08-18T11:36:13.117Z,23.30
2022-08-18T11:38:55.234Z,23.40
2022-08-18T11:41:48.697Z,23.60
2022-08-18T11:44:25.090Z,23.60
2022-08-18T11:47:17.199Z,23.70
2022-08-18T11:50:00.226Z,23.90
2022-08-18T11:52:36.049Z,23.90
2022-08-18T11:55:23.909Z,23.90
2022-08-18T11:57:59.892Z,23.90
2022-08-18T12:01:04.623Z,24.10
2022-08-18T12:03:45.058Z,24.20
2022-08-18T12:06:21.784Z,24.30
2022-08-18T12:09:06.185Z,24.50
2022-08-18T12:14:35.479Z,25.00
2022-08-18T12:17:10.884Z,24.80
2022-08-18T12:19:44.516Z,25.00
2022-08-18T12:22:19.049Z,25.30
2022-08-18T12:24:51.825Z,25.50
2022-08-18T12:27:25.405Z,25.60
2022-08-18T12:30:05.003Z,25.40
2022-08-18T12:32:56.176Z,25.20
2022-08-18T12:35:49.472Z,25.10
2022-08-18T12:38:28.677Z,25.00
2022-08-18T12:41:06.100Z,24.80
2022-08-18T12:43:42.576Z,24.80
2022-08-18T12:46:22.425Z,24.70
2022-08-18T12:49:02.779Z,25.00
2022-08-18T12:51:39.834Z,25.10
2022-08-18T12:54:12.631Z,25.30
2022-08-18T12:56:46.316Z,25.50
2022-08-18T12:59:19.087Z,25.70
2022-08-18T13:01:50.886Z,25.80
2022-08-18T13:04:29.640Z,25.70
2022-08-18T13:07:06.058Z,25.60
2022-08-18T13:09:52.718Z,25.60
2022-08-18T13:12:27.554Z,25.70
2022-08-18T13:15:05.902Z,26.00
2022-08-18T13:17:45.298Z,26.00
2022-08-18T13:20:21.506Z,26.00
2022-08-18T13:22:57.980Z,26.10
2022-08-18T13:25:33.141Z,26.00
2022-08-18T13:28:11.320Z,25.90
2022-08-18T13:30:46.156Z,25.80
2022-08-18T13:33:34.801Z,25.90
2022-08-18T13:36:05.079Z,26.10
2022-08-18T13:38:36.635Z,26.40
2022-08-18T13:41:08.573Z,26.50
2022-08-18T13:43:42.407Z,26.70
2022-08-18T13:46:13.480Z,26.70
2022-08-18T13:48:46.792Z,26.90
2022-08-18T13:51:24.048Z,27.00
2022-08-18T13:54:18.409Z,27.00
2022-08-18T13:56:51.893Z,27.10
2022-08-18T13:59:23.337Z,27.00
2022-08-18T14:01:57.155Z,26.80
2022-08-18T14:04:31.290Z,26.50
2022-08-18T14:07:13.483Z,26.30
2022-08-18T14:09:53.466Z,26.30
2022-08-18T14:12:32.609Z,26.40
2022-08-18T14:15:04.405Z,26.30
2022-08-18T14:17:35.290Z,26.30
2022-08-18T14:20:27.273Z,26.40
2022-08-18T14:23:19.161Z,26.40
2022-08-18T14:26:12.927Z,26.40
2022-08-18T14:28:47.845Z,26.30
2022-08-18T14:31:25.528Z,26.40
2022-08-18T14:34:04.192Z,26.50
2022-08-18T14:36:39.455Z,26.50
2022-08-18T14:39:15.840Z,26.50
2022-08-18T14:41:56.176Z,26.60
2022-08-18T14:44:30.298Z,26.50
2022-08-18T14:47:01.782Z,26.50
2022-08-18T14:49:33.565Z,26.40
2022-08-18T14:52:05.881Z,26.20
2022-08-18T14:54:51.222Z,26.10
2022-08-18T14:57:22.407Z,26.10
2022-08-18T14:59:54.154Z,26.10
2022-08-18T15:02:26.743Z,26.20
2022-08-18T15:04:57.930Z,26.20
2022-08-18T15:07:32.723Z,26.10
2022-08-18T15:10:15.154Z,26.20
2022-08-18T15:12:48.427Z,26.30
2022-08-18T15:15:18.491Z,26.20
2022-08-18T15:17:50.371Z,26.20
2022-08-18T15:20:29.462Z,26.30
2022-08-18T15:23:22.887Z,26.30
2022-08-18T15:25:56.483Z,26.30
2022-08-18T15:28:28.324Z,26.40
2022-08-18T15:33:52.681Z,26.40
2022-08-18T15:36:29.132Z,26.50
2022-08-18T15:38:59.537Z,26.50
2022-08-18T15:41:44.610Z,26.40
2022-08-18T15:44:22.337Z,26.50
2022-08-18T15:46:53.479Z,26.50
2022-08-18T15:49:27.075Z,26.50
2022-08-18T15:51:57.633Z,26.40
2022-08-18T15:54:30.037Z,26.40
2022-08-18T15:57:10.725Z,26.40
2022-08-18T16:00:07.241Z,26.40
2022-08-18T16:02:44.777Z,26.50
2022-08-18T16:05:24.289Z,26.50
2022-08-18T16:07:56.687Z,26.60
2022-08-18T16:10:30.173Z,26.70
2022-08-18T16:13:05.711Z,26.70
2022-08-18T16:15:39.583Z,26.70
2022-08-18T16:18:11.464Z,26.60
2022-08-18T16:20:43.744Z,26.60
2022-08-18T16:23:13.813Z,26.60
2022-08-18T16:25:50.953Z,26.70
2022-08-18T16:28:34.514Z,26.60
2022-08-18T16:31:09.694Z,26.60
2022-08-18T16:33:46.060Z,26.60
2022-08-18T16:36:19.171Z,26.60
2022-08-18T16:38:58.225Z,26.60
2022-08-18T16:41:32.497Z,26.60
2022-08-18T16:44:02.742Z,26.60
2022-08-18T16:46:39.692Z,26.60
2022-08-18T16:49:08.997Z,26.60
2022-08-18T16:51:39.462Z,26.60
2022-08-18T16:54:12.224Z,26.60
2022-08-18T16:56:41.510Z,26.50
2022-08-18T16:59:28.392Z,26.50
2022-08-18T17:02:16.599Z,26.40
2022-08-18T17:04:46.072Z,26.40
2022-08-18T17:07:20.797Z,26.30
2022-08-18T17:09:50.398Z,26.20
2022-08-18T17:12:21.849Z,26.10
2022-08-18T17:14:54.898Z,26.00
2022-08-18T17:17:35.893Z,26.00
2022-08-18T17:20:06.977Z,26.00
2022-08-18T17:22:44.173Z,26.10
2022-08-18T17:25:15.863Z,26.10
2022-08-18T17:27:52.949Z,26.00
2022-08-18T17:30:38.066Z,26.00
2022-08-18T17:33:14.700Z,26.00
2022-08-18T17:35:49.830Z,26.00
2022-08-18T17:38:27.270Z,26.00
2022-08-18T17:41:06.926Z,25.90
2022-08-18T17:46:27.489Z,25.90
2022-08-18T17:49:07.361Z,25.70
2022-08-18T17:51:44.659Z,25.60
2022-08-18T17:54:23.806Z,25.50
2022-08-18T17:57:05.841Z,25.40
2022-08-18T17:59:51.316Z,25.40
2022-08-18T18:02:33.899Z,25.40
2022-08-18T18:05:08.948Z,25.40
2022-08-18T18:07:42.910Z,25.30
2022-08-18T18:10:29.521Z,25.30
2022-08-18T18:13:31.874Z,25.30
2022-08-18T18:16:28.989Z,25.20
2022-08-18T18:19:03.789Z,25.00
2022-08-18T18:21:55.395Z,25.00
2022-08-18T18:24:33.695Z,24.90
2022-08-18T18:27:03.360Z,24.90
2022-08-18T18:29:38.860Z,24.80
2022-08-18T18:32:25.674Z,24.80
2022-08-18T18:35:17.983Z,24.70
2022-08-18T18:37:54.726Z,24.60
2022-08-18T18:40:32.254Z,24.50
2022-08-18T18:43:29.381Z,24.50
2022-08-18T18:46:32.626Z,24.40
2022-08-18T18:49:18.225Z,24.30
2022-08-18T18:52:02.643Z,24.30
2022-08-18T18:54:52.786Z,24.10
2022-08-18T18:57:32.390Z,24.00
2022-08-18T19:00:19.957Z,23.90
2022-08-18T19:03:05.394Z,23.80
2022-08-18T19:05:42.717Z,23.70
2022-08-18T19:08:33.060Z,23.60
2022-08-18T19:11:24.249Z,23.50
2022-08-18T19:14:02.045Z,23.40
2022-08-18T19:16:38.827Z,23.30
2022-08-18T19:19:37.160Z,23.30
2022-08-18T19:22:17.011Z,23.20
2022-08-18T19:24:56.304Z,23.10
2022-08-18T19:27:31.468Z,22.90
2022-08-18T19:30:13.842Z,22.80
2022-08-18T19:32:54.632Z,22.80
2022-08-18T19:35:35.179Z,22.70
2022-08-18T19:38:19.600Z,22.60
2022-08-18T19:40:59.213Z,22.50
2022-08-18T19:43:46.270Z,22.40
2022-08-18T19:46:27.281Z,22.40
2022-08-18T19:49:06.078Z,22.30
2022-08-18T19:51:42.649Z,22.30
2022-08-18T19:54:45.532Z,22.20
2022-08-18T19:57:39.184Z,22.20
2022-08-18T20:00:18.782Z,22.10
2022-08-18T20:03:16.386Z,21.90
2022-08-18T20:05:56.346Z,21.80
2022-08-18T20:09:02.056Z,21.70
2022-08-18T20:11:54.428Z,21.60
2022-08-18T20:14:24.310Z,21.60
2022-08-18T20:17:33.674Z,21.50
2022-08-18T20:20:23.356Z,21.50
2022-08-18T20:22:59.276Z,21.40
2022-08-18T20:25:53.274Z,21.30
2022-08-18T20:28:40.293Z,21.20
2022-08-18T20:31:20.487Z,21.20
2022-08-18T20:34:13.994Z,21.10
2022-08-18T20:36:48.218Z,21.10
2022-08-18T20:39:47.686Z,20.90
2022-08-18T20:42:51.609Z,20.90
2022-08-18T20:45:35.142Z,20.90
2022-08-18T20:48:29.266Z,20.80
2022-08-18T20:51:14.512Z,20.70
2022-08-18T20:54:13.231Z,20.60
2022-08-18T20:56:48.745Z,20.50
2022-08-18T20:59:24.292Z,20.50
2022-08-18T21:02:06.127Z,20.40
2022-08-18T21:04:49.603Z,20.30
2022-08-18T21:07:36.249Z,20.30
2022-08-18T21:10:16.930Z,20.30
2022-08-18T21:12:53.923Z,20.30
2022-08-18T21:15:25.737Z,20.30
2022-08-18T21:18:06.860Z,20.20
2022-08-18T21:20:43.098Z,20.10
2022-08-18T21:23:32.236Z,20.00
2022-08-18T21:26:08.304Z,19.90
2022-08-18T21:28:43.104Z,19.80
2022-08-18T21:31:44.258Z,19.90
2022-08-18T21:34:30.275Z,19.80
2022-08-18T21:37:08.803Z,19.80
2022-08-18T21:39:52.899Z,19.80
2022-08-18T21:42:34.004Z,19.80
2022-08-18T21:45:06.544Z,19.70
2022-08-18T21:47:48.065Z,19.60
2022-08-18T21:50:23.957Z,19.60
2022-08-18T21:53:01.259Z,19.60
2022-08-18T21:55:40.500Z,19.60
2022-08-18T21:58:32.595Z,19.40
2022-08-18T22:01:20.220Z,19.20
2022-08-18T22:03:56.482Z,19.10
2022-08-18T22:06:37.024Z,19.00
2022-08-18T22:09:34.769Z,18.90
2022-08-18T22:12:46.824Z,18.90
2022-08-18T22:15:23.363Z,18.90
2022-08-18T22:17:56.963Z,18.90
2022-08-18T22:20:50.721Z,19.00
2022-08-18T22:24:13.289Z,19.00
2022-08-18T22:26:46.649Z,19.00
2022-08-18T22:29:32.848Z,18.90
2022-08-18T22:32:04.529Z,19.00
2022-08-18T22:34:36.828Z,18.80
2022-08-18T22:37:10.420Z,18.80
2022-08-18T22:39:43.705Z,18.70
2022-08-18T22:42:17.146Z,18.70
2022-08-18T22:44:50.750Z,18.70
2022-08-18T22:47:20.397Z,18.70
2022-08-18T22:49:55.075Z,18.70
2022-08-18T22:52:35.293Z,18.50
2022-08-18T22:55:10.916Z,18.50
2022-08-18T22:57:45.242Z,18.40
2022-08-18T23:00:22.925Z,18.40
2022-08-18T23:02:59.113Z,18.30
2022-08-18T23:05:29.531Z,18.30
2022-08-18T23:07:59.168Z,18.30
2022-08-18T23:10:30.379Z,18.30
2022-08-18T23:13:04.581Z,18.30
2022-08-18T23:15:47.567Z,18.10
2022-08-18T23:18:19.584Z,18.00
2022-08-18T23:20:51.147Z,18.00
2022-08-18T23:23:27.045Z,18.00
2022-08-18T23:26:01.831Z,18.10
2022-08-18T23:28:33.288Z,17.90
2022-08-18T23:31:04.357Z,17.80
2022-08-18T23:33:36.163Z,17.70
2022-08-18T23:36:07.962Z,17.70
2022-08-18T23:38:38.895Z,17.70
2022-08-18T23:41:12.530Z,17.80
2022-08-18T23:43:48.388Z,17.80
2022-08-18T23:46:24.298Z,17.80
2022-08-18T23:49:02.701Z,17.80
2022-08-18T23:51:34.263Z,17.60
2022-08-18T23:54:11.819Z,17.50
2022-08-18T23:56:41.480Z,17.50
2022-08-18T23:59:11.707Z,17.50
